createdAt,value
2018-12-10T00:00:20.643Z,4.20
2018-12-10T00:01:24.879Z,3.92
2018-12-10T00:02:29.166Z,3.75
2018-12-10T00:03:35.666Z,3.10
2018-12-10T00:04:40.804Z,3.40
2018-12-10T00:05:45.303Z,3.85
2018-12-10T00:06:49.486Z,4.35
2018-12-10T00:07:53.732Z,4.12
2018-12-10T00:08:57.996Z,4.87
2018-12-10T00:10:03.519Z,4.00
2018-12-10T00:11:08.027Z,4.50
2018-12-10T00:12:12.771Z,4.45
2018-12-10T00:13:17.072Z,4.22
2018-12-10T00:14:21.174Z,4.67
2018-12-10T00:15:25.278Z,5.22
2018-12-10T00:16:29.441Z,3.60
2018-12-10T00:17:33.641Z,4.58
2018-12-10T00:18:37.722Z,4.00
2018-12-10T00:19:42.013Z,4.15
2018-12-10T00:20:46.099Z,6.90
2018-12-10T00:21:50.177Z,4.28
2018-12-10T00:22:54.609Z,3.50
2018-12-10T00:23:58.782Z,4.70
2018-12-10T00:25:02.925Z,4.17
2018-12-10T00:26:07.059Z,3.70
2018-12-10T00:27:11.681Z,5.53
2018-12-10T00:28:15.997Z,4.85
2018-12-10T00:29:21.866Z,4.95
2018-12-10T00:30:27.200Z,4.30
2018-12-10T00:31:31.293Z,4.03
2018-12-10T00:32:35.423Z,4.10
2018-12-10T00:33:39.756Z,4.00
2018-12-10T00:34:43.833Z,4.28
2018-12-10T00:35:48.204Z,3.75
2018-12-10T00:36:52.316Z,3.87
2018-12-10T00:37:56.452Z,3.10
2018-12-10T00:39:00.508Z,4.70
2018-12-10T00:40:05.003Z,4.75
2018-12-10T00:41:09.075Z,5.03
2018-12-10T00:42:13.224Z,4.17
2018-12-10T00:43:17.347Z,3.83
2018-12-10T00:44:21.482Z,3.90
2018-12-10T00:45:26.510Z,4.15
2018-12-10T00:46:31.254Z,3.62
2018-12-10T00:47:35.765Z,4.05
2018-12-10T00:48:40.070Z,3.92
2018-12-10T00:49:44.529Z,4.35
2018-12-10T00:50:48.605Z,3.33
2018-12-10T00:51:52.684Z,4.20
2018-12-10T00:52:56.775Z,3.52
2018-12-10T00:54:01.254Z,3.75
2018-12-10T00:55:05.564Z,4.62
2018-12-10T00:56:09.692Z,2.95
2018-12-10T00:57:13.929Z,3.15
2018-12-10T00:58:18.024Z,3.75
2018-12-10T00:59:22.370Z,4.47
2018-12-10T01:00:26.478Z,3.22
2018-12-10T01:01:30.747Z,2.98
2018-12-10T01:02:34.874Z,4.05
2018-12-10T01:03:39.069Z,3.67
2018-12-10T01:04:43.121Z,3.85
2018-12-10T01:05:47.164Z,2.70
2018-12-10T01:06:51.239Z,3.20
2018-12-10T01:07:55.296Z,4.05
2018-12-10T01:08:59.544Z,3.67
2018-12-10T01:10:03.779Z,3.40
2018-12-10T01:11:08.280Z,5.10
2018-12-10T01:12:12.338Z,3.65
2018-12-10T01:13:16.461Z,3.40
2018-12-10T01:14:20.639Z,4.47
2018-12-10T01:15:24.738Z,3.30
2018-12-10T01:16:28.912Z,3.15
2018-12-10T01:17:33.067Z,2.72
2018-12-10T01:18:37.150Z,3.67
2018-12-10T01:19:41.285Z,3.58
2018-12-10T01:20:47.090Z,4.33
2018-12-10T01:21:51.249Z,2.92
2018-12-10T01:22:55.595Z,4.70
2018-12-10T01:23:59.896Z,3.75
2018-12-10T01:25:04.679Z,3.20
2018-12-10T01:26:09.107Z,3.35
2018-12-10T01:27:13.187Z,3.50
2018-12-10T01:28:17.227Z,3.40
2018-12-10T01:29:21.389Z,4.30
2018-12-10T01:30:26.566Z,3.42
2018-12-10T01:31:31.275Z,4.00
2018-12-10T01:32:35.384Z,4.85
2018-12-10T01:33:40.351Z,3.87
2018-12-10T01:34:45.779Z,3.47
2018-12-10T01:35:50.770Z,3.90
2018-12-10T01:36:55.149Z,3.02
2018-12-10T01:37:59.628Z,3.87
2018-12-10T01:39:04.734Z,3.40
2018-12-10T01:40:09.290Z,4.28
2018-12-10T01:41:13.897Z,3.70
2018-12-10T01:42:17.957Z,3.17
2018-12-10T01:43:22.032Z,3.60
2018-12-10T01:44:26.116Z,3.72
2018-12-10T01:45:30.215Z,3.65
2018-12-10T01:46:34.326Z,2.92
2018-12-10T01:47:38.516Z,3.52
2018-12-10T01:48:42.952Z,4.17
2018-12-10T01:49:47.393Z,4.35
2018-12-10T01:50:51.776Z,3.20
2018-12-10T01:51:55.836Z,3.45
2018-12-10T01:52:59.895Z,3.50
2018-12-10T01:54:04.094Z,3.50
2018-12-10T01:55:08.175Z,3.80
2018-12-10T01:56:12.245Z,3.27
2018-12-10T01:57:16.325Z,2.40
2018-12-10T01:58:20.415Z,3.25
2018-12-10T01:59:24.656Z,3.12
2018-12-10T02:00:28.716Z,3.58
2018-12-10T02:01:32.747Z,2.92
2018-12-10T02:02:37.076Z,3.72
2018-12-10T02:03:41.250Z,3.35
2018-12-10T02:04:45.372Z,2.83
2018-12-10T02:05:49.524Z,3.15
2018-12-10T02:06:53.757Z,2.83
2018-12-10T02:07:57.860Z,4.53
2018-12-10T02:09:02.330Z,2.52
2018-12-10T02:10:07.875Z,3.00
2018-12-10T02:11:11.973Z,3.90
2018-12-10T02:12:16.053Z,3.27
2018-12-10T02:13:20.191Z,3.62
2018-12-10T02:14:24.280Z,2.45
2018-12-10T02:15:28.380Z,3.98
2018-12-10T02:16:34.168Z,2.83
2018-12-10T02:17:39.712Z,2.72
2018-12-10T02:18:44.184Z,3.50
2018-12-10T02:19:48.380Z,2.72
2018-12-10T02:20:52.540Z,2.60
2018-12-10T02:21:56.880Z,2.98
2018-12-10T02:23:01.369Z,3.75
2018-12-10T02:24:05.467Z,2.72
2018-12-10T02:25:09.577Z,3.83
2018-12-10T02:26:13.989Z,4.03
2018-12-10T02:27:18.132Z,3.33
2018-12-10T02:28:28.025Z,3.52
2018-12-10T02:29:32.131Z,5.40
2018-12-10T02:30:36.193Z,4.58
2018-12-10T02:31:40.263Z,5.00
2018-12-10T02:32:44.575Z,4.58
2018-12-10T02:33:48.717Z,3.87
2018-12-10T02:34:53.145Z,4.50
2018-12-10T02:35:57.648Z,3.52
2018-12-10T02:37:01.768Z,3.50
2018-12-10T02:38:06.169Z,3.55
2018-12-10T02:39:10.196Z,2.50
2018-12-10T02:40:14.218Z,4.03
2018-12-10T02:41:18.280Z,3.02
2018-12-10T02:42:22.378Z,4.12
2018-12-10T02:43:26.518Z,3.15
2018-12-10T02:44:31.299Z,3.45
2018-12-10T02:45:35.766Z,3.10
2018-12-10T02:46:40.126Z,3.10
2018-12-10T02:47:44.377Z,2.55
2018-12-10T02:48:48.475Z,3.80
2018-12-10T02:49:53.545Z,3.20
2018-12-10T02:50:57.596Z,2.90
2018-12-10T02:52:01.959Z,2.87
2018-12-10T02:53:06.194Z,2.65
2018-12-10T02:54:10.247Z,3.45
2018-12-10T02:55:15.004Z,2.95
2018-12-10T02:56:19.332Z,3.00
2018-12-10T02:57:23.902Z,3.52
2018-12-10T02:58:27.901Z,4.78
2018-12-10T02:59:32.110Z,6.95
2018-12-10T03:00:36.299Z,3.15
2018-12-10T03:01:40.371Z,6.00
2018-12-10T03:02:44.638Z,2.80
2018-12-10T03:03:48.915Z,2.87
2018-12-10T03:04:53.019Z,3.70
2018-12-10T03:05:57.108Z,2.67
2018-12-10T03:07:01.193Z,4.03
2018-12-10T03:08:05.441Z,3.85
2018-12-10T03:09:09.509Z,3.75
2018-12-10T03:10:13.746Z,2.45
2018-12-10T03:11:18.015Z,2.60
2018-12-10T03:12:22.265Z,3.22
2018-12-10T03:13:27.146Z,2.60
2018-12-10T03:14:31.582Z,2.95
2018-12-10T03:15:35.761Z,2.87
2018-12-10T03:16:39.816Z,3.12
2018-12-10T03:17:43.905Z,3.08
2018-12-10T03:18:48.013Z,3.72
2018-12-10T03:19:52.433Z,3.90
2018-12-10T03:20:56.532Z,2.80
2018-12-10T03:22:00.619Z,2.70
2018-12-10T03:23:04.668Z,2.50
2018-12-10T03:24:08.751Z,3.40
2018-12-10T03:25:12.869Z,2.80
2018-12-10T03:26:16.976Z,3.60
2018-12-10T03:27:21.077Z,2.92
2018-12-10T03:28:25.204Z,2.35
2018-12-10T03:29:29.474Z,2.00
2018-12-10T03:30:34.324Z,3.17
2018-12-10T03:31:38.427Z,2.90
2018-12-10T03:32:42.776Z,5.95
2018-12-10T03:33:46.989Z,3.85
2018-12-10T03:34:51.047Z,3.37
2018-12-10T03:35:55.331Z,4.80
2018-12-10T03:37:12.454Z,6.25
2018-12-10T03:38:16.826Z,7.92
2018-12-10T03:39:21.072Z,4.60
2018-12-10T03:40:25.785Z,2.37
2018-12-10T03:41:30.152Z,4.42
2018-12-10T03:42:34.261Z,3.60
2018-12-10T03:43:38.768Z,4.08
2018-12-10T03:44:44.360Z,3.98
2018-12-10T03:45:48.868Z,5.30
2018-12-10T03:46:53.358Z,5.67
2018-12-10T03:47:57.439Z,3.05
2018-12-10T03:49:01.621Z,3.92
2018-12-10T03:50:07.817Z,3.58
2018-12-10T03:51:12.018Z,4.30
2018-12-10T03:52:16.066Z,3.60
2018-12-10T03:53:20.151Z,6.67
2018-12-10T03:54:24.533Z,6.40
2018-12-10T03:55:28.670Z,2.98
2018-12-10T03:56:32.802Z,3.15
2018-12-10T03:57:37.244Z,2.45
2018-12-10T03:58:41.329Z,3.62
2018-12-10T03:59:45.854Z,4.03
2018-12-10T04:00:49.918Z,2.52
2018-12-10T04:01:54.195Z,3.00
2018-12-10T04:02:58.580Z,3.10
2018-12-10T04:04:02.715Z,2.87
2018-12-10T04:05:07.150Z,2.85
2018-12-10T04:06:11.631Z,3.22
2018-12-10T04:07:15.775Z,2.77
2018-12-10T04:08:19.874Z,3.37
2018-12-10T04:09:24.432Z,2.45
2018-12-10T04:10:28.547Z,3.25
2018-12-10T04:11:32.637Z,2.80
2018-12-10T04:12:36.710Z,3.20
2018-12-10T04:13:41.083Z,3.30
2018-12-10T04:14:45.652Z,3.05
2018-12-10T04:15:49.855Z,3.05
2018-12-10T04:16:53.912Z,3.15
2018-12-10T04:17:58.066Z,3.42
2018-12-10T04:19:02.394Z,2.70
2018-12-10T04:20:07.478Z,2.55
2018-12-10T04:21:11.757Z,3.00
2018-12-10T04:22:16.262Z,2.52
2018-12-10T04:23:20.957Z,2.40
2018-12-10T04:24:25.041Z,2.90
2018-12-10T04:25:29.280Z,2.45
2018-12-10T04:26:33.316Z,2.27
2018-12-10T04:27:38.286Z,2.37
2018-12-10T04:28:42.357Z,1.67
2018-12-10T04:29:46.470Z,3.05
2018-12-10T04:30:50.961Z,2.55
2018-12-10T04:31:55.492Z,2.62
2018-12-10T04:33:00.009Z,1.85
2018-12-10T04:34:04.770Z,2.45
2018-12-10T04:35:09.020Z,4.30
2018-12-10T04:36:13.394Z,3.95
2018-12-10T04:37:17.433Z,2.90
2018-12-10T04:38:21.534Z,2.00
2018-12-10T04:39:25.556Z,2.30
2018-12-10T04:40:29.638Z,3.00
2018-12-10T04:41:33.755Z,2.55
2018-12-10T04:42:38.287Z,2.70
2018-12-10T04:43:42.356Z,3.00
2018-12-10T04:44:46.705Z,2.55
2018-12-10T04:45:50.827Z,2.50
2018-12-10T04:47:36.393Z,1.85
2018-12-10T04:48:40.947Z,2.80
2018-12-10T04:49:45.011Z,2.20
2018-12-10T04:50:50.041Z,2.85
2018-12-10T04:51:54.337Z,3.12
2018-12-10T04:52:58.939Z,2.27
2018-12-10T04:54:03.197Z,2.20
2018-12-10T04:55:07.837Z,2.58
2018-12-10T04:56:12.442Z,2.17
2018-12-10T04:57:17.724Z,3.58
2018-12-10T04:58:24.043Z,2.05
2018-12-10T04:59:28.284Z,3.05
2018-12-10T05:00:32.484Z,2.25
2018-12-10T05:01:36.580Z,2.50
2018-12-10T05:02:40.730Z,2.85
2018-12-10T05:03:45.772Z,4.70
2018-12-10T05:04:49.864Z,2.60
2018-12-10T05:05:53.984Z,3.00
2018-12-10T05:06:58.275Z,2.72
2018-12-10T05:08:02.352Z,2.83
2018-12-10T05:09:07.611Z,5.87
2018-12-10T05:10:12.016Z,2.62
2018-12-10T05:11:17.029Z,3.12
2018-12-10T05:12:22.141Z,4.08
2018-12-10T05:13:29.170Z,4.62
2018-12-10T05:14:34.802Z,2.80
2018-12-10T05:15:41.088Z,2.98
2018-12-10T05:16:46.367Z,3.50
2018-12-10T05:17:52.090Z,2.37
2018-12-10T05:18:57.080Z,2.17
2018-12-10T05:20:02.357Z,2.50
2018-12-10T05:21:07.212Z,2.70
2018-12-10T05:22:11.958Z,2.55
2018-12-10T05:23:16.618Z,3.00
2018-12-10T05:24:21.245Z,3.20
2018-12-10T05:25:25.982Z,2.58
2018-12-10T05:26:30.767Z,2.62
2018-12-10T05:27:35.296Z,2.08
2018-12-10T05:28:40.365Z,2.92
2018-12-10T05:29:44.726Z,1.98
2018-12-10T05:30:49.009Z,2.17
2018-12-10T05:31:53.328Z,2.15
2018-12-10T05:32:57.681Z,2.40
2018-12-10T05:34:01.954Z,2.70
2018-12-10T05:35:06.963Z,2.00
2018-12-10T05:36:11.220Z,2.70
2018-12-10T05:37:15.815Z,3.12
2018-12-10T05:38:23.924Z,2.90
2018-12-10T05:39:29.268Z,2.30
2018-12-10T05:40:33.825Z,2.90
2018-12-10T05:41:39.175Z,2.80
2018-12-10T05:42:43.436Z,2.50
2018-12-10T05:43:48.088Z,2.35
2018-12-10T05:44:53.828Z,2.80
2018-12-10T05:45:58.259Z,2.90
2018-12-10T05:47:02.785Z,3.10
2018-12-10T05:48:07.524Z,2.55
2018-12-10T05:49:12.515Z,3.33
2018-12-10T05:50:17.886Z,2.35
2018-12-10T05:51:24.169Z,3.00
2018-12-10T05:52:29.823Z,2.35
2018-12-10T05:53:36.703Z,3.45
2018-12-10T05:54:41.156Z,2.95
2018-12-10T05:55:45.437Z,3.17
2018-12-10T05:56:50.199Z,2.65
2018-12-10T05:57:55.768Z,3.40
2018-12-10T05:58:59.850Z,4.00
2018-12-10T06:00:05.604Z,5.50
2018-12-10T06:01:10.395Z,3.30
2018-12-10T06:02:14.995Z,3.10
2018-12-10T06:03:20.099Z,3.10
2018-12-10T06:04:24.260Z,3.12
2018-12-10T06:05:29.020Z,3.10
2018-12-10T06:06:33.429Z,3.40
2018-12-10T06:07:41.087Z,2.98
2018-12-10T06:08:47.280Z,2.75
2018-12-10T06:09:51.697Z,3.40
2018-12-10T06:11:00.316Z,3.40
2018-12-10T06:12:05.628Z,4.47
2018-12-10T06:13:10.696Z,2.67
2018-12-10T06:14:14.792Z,5.03
2018-12-10T06:15:21.461Z,3.90
2018-12-10T06:16:26.156Z,4.25
2018-12-10T06:17:30.508Z,3.15
2018-12-10T06:18:34.743Z,4.50
2018-12-10T06:19:39.320Z,3.42
2018-12-10T06:20:43.321Z,3.55
2018-12-10T06:21:47.807Z,3.27
2018-12-10T06:22:52.495Z,4.22
2018-12-10T06:23:56.686Z,4.42
2018-12-10T06:25:03.273Z,3.55
2018-12-10T06:26:08.705Z,3.90
2018-12-10T06:27:14.237Z,4.95
2018-12-10T06:28:18.632Z,3.92
2018-12-10T06:29:23.347Z,3.55
2018-12-10T06:30:28.431Z,4.47
2018-12-10T06:31:37.789Z,3.50
2018-12-10T06:32:43.332Z,3.83
2018-12-10T06:33:48.044Z,3.98
2018-12-10T06:34:53.627Z,4.33
2018-12-10T06:35:59.365Z,4.17
2018-12-10T06:37:03.861Z,3.83
2018-12-10T06:38:09.801Z,4.70
2018-12-10T06:39:14.264Z,4.10
2018-12-10T06:40:18.441Z,5.33
2018-12-10T06:41:23.044Z,4.10
2018-12-10T06:42:28.665Z,3.70
2018-12-10T06:43:33.233Z,4.10
2018-12-10T06:44:39.197Z,4.30
2018-12-10T06:45:44.286Z,4.17
2018-12-10T06:46:49.259Z,4.78
2018-12-10T06:47:53.584Z,4.58
2018-12-10T06:48:57.781Z,4.25
2018-12-10T06:50:03.259Z,4.67
2018-12-10T06:51:07.435Z,5.15
2018-12-10T06:52:11.657Z,5.47
2018-12-10T06:53:17.468Z,5.30
2018-12-10T06:54:22.391Z,4.20
2018-12-10T06:55:26.523Z,5.10
2018-12-10T06:56:30.700Z,5.00
2018-12-10T06:57:34.767Z,4.95
2018-12-10T06:58:39.918Z,6.80
2018-12-10T06:59:48.171Z,5.80
2018-12-10T07:00:54.378Z,8.00
2018-12-10T07:02:02.670Z,5.50
2018-12-10T07:03:07.304Z,5.03
2018-12-10T07:04:11.720Z,7.22
2018-12-10T07:05:16.240Z,5.53
2018-12-10T07:06:22.042Z,6.33
2018-12-10T07:07:32.365Z,5.42
2018-12-10T07:08:37.308Z,5.72
2018-12-10T07:09:42.796Z,6.35
2018-12-10T07:10:46.931Z,6.10
2018-12-10T07:11:51.157Z,6.33
2018-12-10T07:12:55.236Z,6.00
2018-12-10T07:13:59.404Z,6.80
2018-12-10T07:15:03.733Z,7.05
2018-12-10T07:16:10.923Z,6.20
2018-12-10T07:17:19.988Z,5.15
2018-12-10T07:18:26.790Z,5.85
2018-12-10T07:19:43.680Z,6.67
2018-12-10T07:21:09.527Z,7.17
2018-12-10T07:22:14.329Z,6.75
2018-12-10T07:23:20.675Z,7.80
2018-12-10T07:24:25.689Z,5.55
2018-12-10T07:25:34.067Z,5.50
2018-12-10T07:26:42.188Z,7.25
2018-12-10T07:27:48.742Z,6.05
2018-12-10T07:28:55.240Z,6.03
2018-12-10T07:30:00.435Z,7.55
2018-12-10T07:31:04.799Z,6.10
2018-12-10T07:32:08.967Z,6.35
2018-12-10T07:33:13.504Z,6.60
2018-12-10T07:34:17.741Z,5.85
2018-12-10T07:35:25.487Z,6.87
2018-12-10T07:36:30.211Z,6.78
2018-12-10T07:37:37.414Z,6.70
2018-12-10T07:38:43.501Z,6.45
2018-12-10T07:39:47.841Z,6.10
2018-12-10T07:40:52.308Z,6.15
2018-12-10T07:41:59.504Z,5.95
2018-12-10T07:43:03.876Z,5.90
2018-12-10T07:44:09.517Z,6.78
2018-12-10T07:45:15.260Z,6.90
2018-12-10T07:46:29.188Z,6.50
2018-12-10T07:47:34.997Z,7.65
2018-12-10T07:48:42.532Z,7.08
2018-12-10T07:49:50.634Z,5.83
2018-12-10T07:51:01.624Z,5.20
2018-12-10T07:52:06.874Z,7.03
2018-12-10T07:53:11.187Z,6.37
2018-12-10T07:54:15.440Z,6.85
2018-12-10T07:55:20.135Z,5.75
2018-12-10T07:56:29.008Z,10.32
2018-12-10T07:57:31.097Z,12.18
2018-12-10T07:58:35.526Z,10.13
2018-12-10T07:59:40.149Z,6.40
2018-12-10T08:00:44.541Z,6.47
2018-12-10T08:01:50.777Z,6.42
2018-12-10T08:02:57.173Z,5.28
2018-12-10T08:04:01.514Z,5.90
2018-12-10T08:05:12.259Z,6.33
2018-12-10T08:06:17.079Z,6.10
2018-12-10T08:07:24.316Z,5.75
2018-12-10T08:08:34.265Z,7.12
2018-12-10T08:09:42.304Z,7.53
2018-12-10T08:10:48.756Z,6.97
2018-12-10T08:11:53.192Z,7.50
2018-12-10T08:13:14.385Z,8.83
2018-12-10T08:14:19.526Z,5.50
2018-12-10T08:15:27.305Z,8.20
2018-12-10T08:16:35.429Z,6.70
2018-12-10T08:17:40.795Z,6.17
2018-12-10T08:18:47.524Z,7.00
2018-12-10T08:19:53.163Z,4.80
2018-12-10T08:21:04.927Z,6.15
2018-12-10T08:22:10.714Z,5.62
2018-12-10T08:23:15.603Z,6.28
2018-12-10T08:24:20.399Z,6.33
2018-12-10T08:25:26.311Z,5.37
2018-12-10T08:26:33.240Z,4.45
2018-12-10T08:27:40.076Z,4.92
2018-12-10T08:28:45.002Z,5.17
2018-12-10T08:29:58.321Z,5.47
2018-12-10T08:31:04.323Z,6.60
2018-12-10T08:32:10.834Z,6.85
2018-12-10T08:33:16.304Z,6.65
2018-12-10T08:34:24.678Z,4.35
2018-12-10T08:35:29.920Z,5.42
2018-12-10T08:36:36.021Z,7.20
2018-12-10T08:37:40.664Z,7.85
2018-12-10T08:40:15.795Z,5.28
2018-12-10T08:41:23.526Z,6.00
2018-12-10T08:42:36.501Z,6.20
2018-12-10T08:43:43.115Z,4.62
2018-12-10T08:44:50.795Z,7.05
2018-12-10T08:45:56.218Z,4.53
2018-12-10T08:47:01.092Z,5.35
2018-12-10T08:48:05.473Z,4.83
2018-12-10T08:49:10.141Z,6.20
2018-12-10T08:50:19.326Z,5.55
2018-12-10T08:51:23.809Z,4.75
2018-12-10T08:52:28.063Z,4.87
2018-12-10T08:53:34.119Z,4.35
2018-12-10T08:54:39.450Z,4.90
2018-12-10T08:55:44.683Z,5.85
2018-12-10T08:56:50.945Z,5.20
2018-12-10T08:57:55.636Z,4.80
2018-12-10T08:58:59.849Z,4.45
2018-12-10T09:00:04.561Z,3.90
2018-12-10T09:01:10.177Z,4.60
2018-12-10T09:02:15.790Z,3.70
2018-12-10T09:03:20.433Z,4.85
2018-12-10T09:04:28.720Z,4.03
2018-12-10T09:05:34.248Z,8.00
2018-12-10T09:06:39.001Z,27.77
2018-12-10T09:07:43.325Z,8.70
2018-12-10T09:09:18.333Z,8.73
2018-12-10T09:10:41.200Z,21.35
2018-12-10T09:11:48.393Z,13.38
2018-12-10T09:12:56.361Z,10.70
2018-12-10T09:14:03.448Z,68.67
2018-12-10T09:15:38.409Z,38.83
2018-12-10T09:16:42.817Z,7.62
2018-12-10T09:17:47.324Z,6.33
2018-12-10T09:18:52.710Z,6.30
2018-12-10T09:19:57.920Z,11.18
2018-12-10T09:21:02.766Z,19.25
2018-12-10T09:22:07.139Z,9.03
2018-12-10T09:23:12.446Z,8.70
2018-12-10T09:24:17.175Z,7.10
2018-12-10T09:25:24.707Z,15.60
2018-12-10T09:26:31.089Z,9.60
2018-12-10T09:27:36.030Z,9.60
2018-12-10T09:28:40.760Z,14.70
2018-12-10T09:29:48.440Z,8.03
2018-12-10T09:30:53.730Z,6.42
2018-12-10T09:31:58.367Z,4.10
2018-12-10T09:33:05.026Z,7.28
2018-12-10T09:34:09.811Z,5.37
2018-12-10T09:35:14.758Z,5.50
2018-12-10T09:36:19.423Z,8.68
2018-12-10T09:37:25.254Z,16.87
2018-12-10T09:38:31.767Z,10.30
2018-12-10T09:39:38.355Z,35.85
2018-12-10T09:40:43.720Z,17.17
2018-12-10T09:41:48.477Z,7.67
2018-12-10T09:42:52.883Z,33.75
2018-12-10T09:43:58.216Z,22.55
2018-12-10T09:45:03.405Z,16.37
2018-12-10T09:46:07.777Z,18.70
2018-12-10T09:47:14.337Z,18.05
2018-12-10T09:48:18.812Z,18.40
2018-12-10T09:49:24.181Z,8.95
2018-12-10T09:50:28.965Z,6.80
2018-12-10T09:51:34.047Z,12.07
2018-12-10T09:52:41.618Z,8.93
2018-12-10T09:53:45.932Z,6.80
2018-12-10T09:54:52.601Z,6.45
2018-12-10T09:55:58.081Z,10.05
2018-12-10T09:57:03.321Z,17.50
2018-12-10T09:58:07.635Z,6.40
2018-12-10T09:59:11.884Z,5.53
2018-12-10T10:00:16.160Z,8.43
2018-12-10T10:01:20.418Z,5.58
2018-12-10T10:02:24.498Z,8.53
2018-12-10T10:03:29.850Z,7.03
2018-12-10T10:04:38.442Z,7.15
2018-12-10T10:05:42.773Z,6.42
2018-12-10T10:06:47.920Z,5.83
2018-12-10T10:07:53.358Z,6.55
2018-12-10T10:08:57.763Z,5.22
2018-12-10T10:10:02.503Z,5.95
2018-12-10T10:11:06.692Z,7.47
2018-12-10T10:12:10.897Z,9.03
2018-12-10T10:13:15.602Z,7.72
2018-12-10T10:14:23.232Z,8.30
2018-12-10T10:15:29.240Z,7.67
2018-12-10T10:16:37.071Z,9.90
2018-12-10T10:17:42.351Z,10.23
2018-12-10T10:18:47.716Z,9.08
2018-12-10T10:19:53.905Z,8.80
2018-12-10T10:20:58.586Z,10.98
2018-12-10T10:22:02.772Z,8.88
2018-12-10T10:23:06.855Z,9.93
2018-12-10T10:24:11.610Z,14.65
2018-12-10T10:25:15.692Z,12.10
2018-12-10T10:26:20.094Z,9.28
2018-12-10T10:27:25.420Z,10.10
2018-12-10T10:28:31.524Z,8.68
2018-12-10T10:29:35.736Z,8.83
2018-12-10T10:30:43.986Z,9.75
2018-12-10T10:31:48.085Z,8.98
2018-12-10T10:32:52.344Z,11.15
2018-12-10T10:33:56.910Z,10.72
2018-12-10T10:35:01.260Z,8.80
2018-12-10T10:36:11.980Z,8.98
2018-12-10T10:37:16.775Z,8.90
2018-12-10T10:38:21.023Z,8.60
2018-12-10T10:39:26.561Z,9.90
2018-12-10T10:40:32.315Z,10.10
2018-12-10T10:41:36.366Z,8.18
2018-12-10T10:42:46.385Z,7.70
2018-12-10T10:43:50.520Z,6.75
2018-12-10T10:44:55.151Z,6.72
2018-12-10T10:45:59.606Z,7.22
2018-12-10T10:47:04.765Z,6.90
2018-12-10T10:48:08.862Z,6.70
2018-12-10T10:49:13.060Z,5.87
2018-12-10T10:50:17.853Z,5.62
2018-12-10T10:51:22.294Z,5.70
2018-12-10T10:52:26.533Z,6.67
2018-12-10T10:53:31.448Z,6.40
2018-12-10T10:54:35.888Z,6.60
2018-12-10T10:55:40.245Z,7.05
2018-12-10T10:56:45.777Z,5.87
2018-12-10T10:57:52.380Z,7.17
2018-12-10T10:58:59.603Z,4.90
2018-12-10T11:00:07.145Z,6.22
2018-12-10T11:01:16.818Z,6.05
2018-12-10T11:02:26.123Z,5.28
2018-12-10T11:03:37.424Z,6.00
2018-12-10T11:04:42.465Z,4.87
2018-12-10T11:05:47.321Z,5.87
2018-12-10T11:06:51.634Z,5.90
2018-12-10T11:07:55.816Z,5.50
2018-12-10T11:09:00.203Z,5.28
2018-12-10T11:10:04.982Z,6.37
2018-12-10T11:11:09.199Z,5.60
2018-12-10T11:12:13.486Z,5.55
2018-12-10T11:13:19.150Z,5.80
2018-12-10T11:14:23.348Z,5.70
2018-12-10T11:15:28.251Z,6.60
2018-12-10T11:16:37.975Z,6.25
2018-12-10T11:17:43.072Z,7.17
2018-12-10T11:18:47.424Z,6.47
2018-12-10T11:19:51.903Z,6.60
2018-12-10T11:20:57.082Z,7.90
2018-12-10T11:22:03.090Z,6.70
2018-12-10T11:23:08.189Z,6.28
2018-12-10T11:24:12.728Z,6.10
2018-12-10T11:25:23.872Z,5.97
2018-12-10T11:26:32.569Z,5.95
2018-12-10T11:27:40.082Z,5.80
2018-12-10T11:28:48.099Z,5.75
2018-12-10T11:29:55.475Z,5.83
2018-12-10T11:31:00.783Z,5.58
2018-12-10T11:32:06.559Z,5.65
2018-12-10T11:33:14.000Z,5.47
2018-12-10T11:34:20.319Z,7.30
2018-12-10T11:35:28.718Z,5.85
2018-12-10T11:36:33.602Z,6.62
2018-12-10T11:37:39.495Z,6.00
2018-12-10T11:38:51.994Z,4.75
2018-12-10T11:39:58.256Z,5.00
2018-12-10T11:41:05.410Z,4.42
2018-12-10T11:42:17.268Z,5.80
2018-12-10T11:43:25.280Z,3.98
2018-12-10T11:44:30.550Z,4.92
2018-12-10T11:45:36.496Z,4.60
2018-12-10T11:46:44.084Z,4.37
2018-12-10T11:47:50.477Z,4.05
2018-12-10T11:48:57.543Z,6.35
2018-12-10T11:50:03.559Z,5.55
2018-12-10T11:51:09.195Z,4.92
2018-12-10T11:52:19.870Z,6.42
2018-12-10T11:53:26.469Z,5.50
2018-12-10T11:54:32.644Z,7.50
2018-12-10T11:55:39.870Z,7.28
2018-12-10T11:56:45.715Z,6.83
2018-12-10T11:57:51.818Z,6.87
2018-12-10T11:58:57.972Z,5.72
2018-12-10T12:00:03.453Z,7.30
2018-12-10T12:01:10.331Z,7.75
2018-12-10T12:02:18.108Z,7.20
2018-12-10T12:03:23.468Z,6.53
2018-12-10T12:04:27.854Z,8.58
2018-12-10T12:05:32.004Z,8.10
2018-12-10T12:06:38.469Z,8.58
2018-12-10T12:07:42.843Z,7.95
2018-12-10T12:08:48.353Z,8.68
2018-12-10T12:10:00.292Z,8.53
2018-12-10T12:11:05.201Z,9.63
2018-12-10T12:12:09.763Z,7.42
2018-12-10T12:13:14.213Z,7.58
2018-12-10T12:14:19.185Z,8.93
2018-12-10T12:15:23.316Z,8.68
2018-12-10T12:16:27.646Z,9.13
2018-12-10T12:17:31.730Z,7.75
2018-12-10T12:18:37.317Z,10.13
2018-12-10T12:19:41.572Z,9.15
2018-12-10T12:20:47.210Z,7.97
2018-12-10T12:21:52.088Z,14.10
2018-12-10T12:22:57.198Z,8.90
2018-12-10T12:24:02.792Z,8.10
2018-12-10T12:25:09.312Z,8.08
2018-12-10T12:26:14.600Z,7.65
2018-12-10T12:27:20.350Z,7.90
2018-12-10T12:28:24.603Z,6.67
2018-12-10T12:29:32.434Z,11.83
2018-12-10T12:30:37.235Z,9.48
2018-12-10T12:31:42.256Z,7.60
2018-12-10T12:32:47.348Z,7.30
2018-12-10T12:33:51.644Z,8.88
2018-12-10T12:34:57.704Z,7.05
2018-12-10T12:36:02.237Z,10.88
2018-12-10T12:37:06.361Z,9.80
2018-12-10T12:38:10.490Z,9.13
2018-12-10T12:39:14.968Z,11.28
2018-12-10T12:40:19.436Z,7.55
2018-12-10T12:41:25.498Z,6.42
2018-12-10T12:42:30.970Z,6.83
2018-12-10T12:43:35.710Z,6.72
2018-12-10T12:44:40.472Z,5.90
2018-12-10T12:45:47.511Z,5.80
2018-12-10T12:46:53.339Z,8.80
2018-12-10T12:47:59.515Z,4.85
2018-12-10T12:49:04.622Z,5.83
2018-12-10T12:50:10.187Z,5.08
2018-12-10T12:51:16.740Z,6.15
2018-12-10T12:52:21.201Z,6.12
2018-12-10T12:53:26.152Z,5.33
2018-12-10T12:54:31.612Z,5.55
2018-12-10T12:55:36.717Z,4.92
2018-12-10T12:56:41.198Z,5.60
2018-12-10T12:57:46.199Z,5.37
2018-12-10T12:58:57.752Z,6.30
2018-12-10T13:00:03.468Z,5.67
2018-12-10T13:01:11.095Z,6.47
2018-12-10T13:02:16.235Z,5.92
2018-12-10T13:03:21.496Z,4.70
2018-12-10T13:04:27.636Z,5.67
2018-12-10T13:05:38.566Z,5.40
2018-12-10T13:06:45.901Z,4.95
2018-12-10T13:07:54.633Z,5.10
2018-12-10T13:08:59.826Z,4.72
2018-12-10T13:10:04.746Z,5.10
2018-12-10T13:11:08.964Z,5.42
2018-12-10T13:12:24.201Z,5.80
2018-12-10T13:13:31.107Z,6.03
2018-12-10T13:14:36.256Z,4.90
2018-12-10T13:15:41.028Z,4.90
2018-12-10T13:16:49.349Z,5.15
2018-12-10T13:17:56.095Z,5.00
2018-12-10T13:19:00.716Z,5.53
2018-12-10T13:20:05.955Z,5.22
2018-12-10T13:21:10.112Z,5.30
2018-12-10T13:22:15.652Z,5.35
2018-12-10T13:23:20.036Z,5.55
2018-12-10T13:24:24.570Z,6.75
2018-12-10T13:25:29.075Z,5.17
2018-12-10T13:26:33.576Z,5.60
2018-12-10T13:27:38.952Z,5.85
2018-12-10T13:28:44.238Z,5.72
2018-12-10T13:29:48.392Z,5.75
2018-12-10T13:30:54.868Z,5.35
2018-12-10T13:32:00.240Z,6.08
2018-12-10T13:33:05.675Z,6.35
2018-12-10T13:34:10.120Z,6.25
2018-12-10T13:35:14.507Z,7.20
2018-12-10T13:36:20.232Z,7.45
2018-12-10T13:37:24.285Z,6.42
2018-12-10T13:38:36.880Z,6.53
2018-12-10T13:39:39.953Z,6.42
2018-12-10T13:40:44.842Z,8.03
2018-12-10T13:41:50.281Z,5.75
2018-12-10T13:42:54.919Z,5.90
2018-12-10T13:44:00.196Z,5.90
2018-12-10T13:45:04.686Z,6.15
2018-12-10T13:46:09.652Z,6.58
2018-12-10T13:47:16.562Z,5.92
2018-12-10T13:48:20.717Z,6.58
2018-12-10T13:49:25.436Z,6.05
2018-12-10T13:50:30.140Z,6.50
2018-12-10T13:51:37.194Z,6.22
2018-12-10T13:52:41.717Z,6.25
2018-12-10T13:53:47.005Z,6.30
2018-12-10T13:54:51.598Z,7.08
2018-12-10T13:55:56.001Z,6.75
2018-12-10T13:57:00.717Z,6.92
2018-12-10T13:58:05.300Z,7.70
2018-12-10T13:59:10.522Z,8.08
2018-12-10T14:00:15.504Z,8.80
2018-12-10T14:01:20.182Z,10.08
2018-12-10T14:02:24.754Z,11.40
2018-12-10T14:03:32.790Z,11.85
2018-12-10T14:04:45.096Z,8.38
2018-12-10T14:05:51.788Z,8.10
2018-12-10T14:06:56.222Z,9.80
2018-12-10T14:08:00.326Z,8.15
2018-12-10T14:09:08.419Z,11.40
2018-12-10T14:10:13.755Z,9.03
2018-12-10T14:11:21.228Z,7.42
2018-12-10T14:12:26.345Z,8.88
2018-12-10T14:13:31.029Z,7.50
2018-12-10T14:14:36.023Z,7.05
2018-12-10T14:15:45.603Z,6.90
2018-12-10T14:16:52.501Z,6.60
2018-12-10T14:17:57.767Z,8.73
2018-12-10T14:19:02.695Z,7.80
2018-12-10T14:20:08.107Z,8.30
2018-12-10T14:21:12.813Z,6.22
2018-12-10T14:22:17.052Z,7.65
2018-12-10T14:23:21.126Z,6.65
2018-12-10T14:24:26.239Z,7.92
2018-12-10T14:25:30.551Z,6.85
2018-12-10T14:26:35.561Z,7.78
2018-12-10T14:27:40.980Z,8.15
2018-12-10T14:28:46.935Z,7.30
2018-12-10T14:29:53.204Z,6.70
2018-12-10T14:30:57.973Z,7.37